Time;durP1;ratioP1;P1;durP2;ratioP2;P2;SDS_P1;SDS_P2;PMS_P1;PMS_P2;Temp;Humidity;BMP_temperature;BMP_pressure;BME280_temperature;BME280_humidity;BME280_pressure;Samples;Min_cycle;Max_cycle;Signal;HPM_P1;HPM_P2
2023/06/24 00:01:33;;;;;;;7.22;5.57;;;;;;;18.96;83.05;102247.63;6221161;28;20232;-70
2023/06/24 00:04:54;;;;;;;6.95;6.32;;;;;;;18.85;83.33;102254.19;6214292;28;20256;-70
2023/06/24 00:08:15;;;;;;;10.75;6.70;;;;;;;18.67;83.53;102260.66;6216283;28;20237;-72
2023/06/24 00:11:36;;;;;;;5.35;4.95;;;;;;;18.78;83.70;102252.19;6220334;28;20645;-70
2023/06/24 00:14:58;;;;;;;6.32;5.18;;;;;;;18.83;84.03;102260.81;6207599;28;20570;-70
2023/06/24 00:18:19;;;;;;;5.10;4.63;;;;;;;18.85;83.98;102259.66;6221444;28;20491;-70
2023/06/24 00:21:40;;;;;;;5.55;5.03;;;;;;;18.87;83.83;102256.75;6218768;28;20232;-71
2023/06/24 00:25:01;;;;;;;12.40;6.47;;;;;;;18.73;84.05;102258.13;6216249;28;20227;-70
2023/06/24 00:28:23;;;;;;;5.00;4.50;;;;;;;18.62;84.32;102262.97;6225859;28;20256;-70
2023/06/24 00:31:45;;;;;;;6.18;5.57;;;;;;;18.66;84.62;102267.97;6221702;28;20228;-71
2023/06/24 00:35:06;;;;;;;6.32;5.72;;;;;;;18.60;84.81;102263.13;6223038;28;20240;-71
2023/06/24 00:38:29;;;;;;;6.25;5.65;;;;;;;18.61;85.03;102272.19;6225624;28;20248;-70
2023/06/24 00:41:51;;;;;;;5.32;4.72;;;;;;;18.45;85.23;102277.47;6212272;28;20236;-72
2023/06/24 00:45:12;;;;;;;5.05;4.57;;;;;;;18.46;85.67;102273.72;6215950;28;20303;-71
2023/06/24 00:48:34;;;;;;;6.65;6.05;;;;;;;18.40;85.85;102268.84;6219618;28;20308;-69
2023/06/24 00:51:55;;;;;;;6.18;5.57;;;;;;;18.38;85.82;102272.56;6219238;28;20532;-71
2023/06/24 00:55:17;;;;;;;6.97;6.38;;;;;;;18.47;86.01;102276.28;6214392;28;20236;-72
2023/06/24 00:58:39;;;;;;;6.25;5.53;;;;;;;18.40;85.97;102277.03;6220294;28;20312;-71
2023/06/24 01:02:01;;;;;;;5.47;4.97;;;;;;;18.20;86.33;102279.88;6220303;28;20236;-71
2023/06/24 01:05:25;;;;;;;5.75;5.22;;;;;;;18.19;86.75;102283.59;6208620;28;20319;-71
2023/06/24 01:08:50;;;;;;;5.03;4.53;;;;;;;18.27;86.94;102283.69;6221770;28;20220;-71
2023/06/24 01:12:11;;;;;;;6.40;5.78;;;;;;;18.40;86.71;102277.88;6220633;28;20331;-71
2023/06/24 01:15:33;;;;;;;7.68;6.00;;;;;;;18.29;86.67;102286.28;6214998;28;20602;-71
2023/06/24 01:19:00;;;;;;;5.78;5.07;;;;;;;18.30;86.67;102282.53;6211071;28;20221;-70
2023/06/24 01:22:40;;;;;;;6.32;5.78;;;;;;;18.24;86.69;102292.19;6221844;28;22049;-70
2023/06/24 01:26:30;;;;;;;4.75;4.32;;;;;;;18.31;86.68;102292.47;6203192;28;20240;-72
2023/06/24 01:30:13;;;;;;;6.28;5.63;;;;;;;18.37;86.61;102300.03;6224986;28;20235;-72
2023/06/24 01:33:40;;;;;;;6.15;5.63;;;;;;;18.24;86.60;102296.78;6222071;28;20602;-71
2023/06/24 01:37:09;;;;;;;5.85;4.88;;;;;;;18.28;86.62;102295.47;6201543;28;20511;-71
2023/06/24 01:40:33;;;;;;;7.70;5.15;;;;;;;18.22;86.72;102294.22;6218884;28;20604;-72
2023/06/24 01:43:57;;;;;;;4.63;4.22;;;;;;;18.26;86.43;102292.91;6224851;28;20350;-71
2023/06/24 01:47:21;;;;;;;5.95;4.47;;;;;;;18.20;86.53;102296.25;6222588;28;20607;-70
2023/06/24 01:50:49;;;;;;;5.90;5.35;;;;;;;18.22;86.55;102305.16;6222041;28;20228;-71
2023/06/24 01:54:15;;;;;;;5.63;4.60;;;;;;;18.15;86.81;102295.81;6216874;28;20232;-71
2023/06/24 01:57:38;;;;;;;5.40;4.78;;;;;;;18.14;86.71;102301.44;6226759;28;20220;-70
2023/06/24 02:01:00;;;;;;;5.50;4.95;;;;;;;18.08;86.83;102304.78;6221559;28;20232;-70
2023/06/24 02:04:21;;;;;;;6.60;5.65;;;;;;;18.12;86.91;102307.06;6210734;28;20236;-71
2023/06/24 02:07:47;;;;;;;5.93;5.20;;;;;;;18.13;86.98;102303.31;6218828;28;20259;-71
2023/06/24 02:11:10;;;;;;;6.50;5.20;;;;;;;18.06;87.09;102294.03;6226850;28;20250;-71
2023/06/24 02:14:32;;;;;;;6.80;5.30;;;;;;;18.02;87.37;102300.75;6217774;28;20322;-70
2023/06/24 02:17:56;;;;;;;5.13;4.72;;;;;;;18.01;87.41;102299.06;6236044;28;20327;-71
2023/06/24 02:21:19;;;;;;;5.53;4.88;;;;;;;18.00;87.61;102304.66;6232690;28;20759;-70
2023/06/24 02:24:42;;;;;;;5.45;4.95;;;;;;;17.91;87.38;102306.41;6216945;28;20629;-72
2023/06/24 02:28:04;;;;;;;5.18;4.68;;;;;;;17.92;87.64;102315.47;6234977;28;20236;-71
2023/06/24 02:31:25;;;;;;;8.98;6.53;;;;;;;17.88;87.84;102319.47;6220421;28;20231;-70
2023/06/24 02:34:46;;;;;;;5.55;5.05;;;;;;;17.93;87.93;102320.78;6213694;28;20227;-71
2023/06/24 02:38:07;;;;;;;5.72;4.78;;;;;;;17.86;88.08;102324.22;6227313;28;20327;-70
2023/06/24 02:41:30;;;;;;;6.00;4.90;;;;;;;17.95;88.04;102326.94;6228497;28;20323;-71
2023/06/24 02:44:51;;;;;;;5.95;5.18;;;;;;;18.01;87.92;102328.22;6228597;28;20244;-71
2023/06/24 02:48:14;;;;;;;5.15;4.15;;;;;;;18.01;87.58;102325.47;6226649;28;20323;-70
2023/06/24 02:51:35;;;;;;;6.10;5.35;;;;;;;17.98;87.53;102325.78;6226648;28;20587;-71
2023/06/24 02:54:57;;;;;;;9.63;6.63;;;;;;;17.95;87.53;102329.69;6215087;28;20264;-70
2023/06/24 02:58:46;;;;;;;6.95;6.30;;;;;;;17.92;87.53;102327.22;6229283;28;20268;-72
2023/06/24 03:02:14;;;;;;;7.18;6.47;;;;;;;17.92;87.63;102331.84;6211209;28;20237;-70
2023/06/24 03:05:37;;;;;;;6.65;6.07;;;;;;;17.89;87.72;102337.59;6220708;28;20232;-70
2023/06/24 03:08:58;;;;;;;9.15;6.90;;;;;;;17.76;87.94;102337.91;6224196;28;20241;-71
2023/06/24 03:12:20;;;;;;;9.88;8.88;;;;;;;17.84;88.16;102342.63;6231038;28;20233;-71
2023/06/24 03:15:42;;;;;;;9.57;8.63;;;;;;;17.79;88.16;102342.22;6223556;28;20240;-70
2023/06/24 03:19:03;;;;;;;7.45;6.80;;;;;;;17.82;88.30;102341.91;6220671;28;20569;-70
2023/06/24 03:22:25;;;;;;;7.18;6.57;;;;;;;17.81;88.55;102337.47;6213910;28;20232;-71
2023/06/24 03:25:46;;;;;;;7.65;5.75;;;;;;;17.81;88.48;102332.00;6219109;28;20352;-72
2023/06/24 03:29:08;;;;;;;6.60;5.40;;;;;;;17.94;88.45;102324.38;6219501;28;20799;-71
2023/06/24 03:32:31;;;;;;;6.03;5.43;;;;;;;17.95;88.25;102340.59;6218695;28;20232;-69
2023/06/24 03:35:52;;;;;;;7.68;6.78;;;;;;;17.99;88.10;102338.41;6217165;28;20232;-70
2023/06/24 03:39:17;;;;;;;9.95;8.52;;;;;;;18.03;87.93;102345.28;6207000;28;20252;-71
2023/06/24 03:42:38;;;;;;;8.23;7.25;;;;;;;18.15;87.63;102350.44;6222114;28;20606;-71
2023/06/24 03:46:00;;;;;;;7.00;6.35;;;;;;;18.16;87.36;102345.84;6198085;28;20240;-71
2023/06/24 03:49:22;;;;;;;6.95;6.20;;;;;;;18.18;86.98;102349.28;6210868;28;20237;-70
2023/06/24 03:52:44;;;;;;;6.47;5.80;;;;;;;18.25;86.75;102344.94;6216520;28;20319;-71
2023/06/24 03:56:05;;;;;;;7.28;6.57;;;;;;;18.30;86.54;102359.00;6214376;28;20237;-71
2023/06/24 03:59:26;;;;;;;7.60;6.75;;;;;;;18.26;86.06;102352.97;6211242;28;20228;-70
2023/06/24 04:02:52;;;;;;;12.15;7.00;;;;;;;18.28;85.72;102355.56;6210419;28;20232;-71
2023/06/24 04:06:14;;;;;;;5.95;5.05;;;;;;;18.31;85.66;102350.63;6217942;28;20235;-71
2023/06/24 04:09:35;;;;;;;7.47;6.72;;;;;;;18.45;85.37;102349.34;6215034;28;20232;-70
2023/06/24 04:12:56;;;;;;;6.22;5.53;;;;;;;18.46;84.76;102350.19;6231429;28;20244;-70
2023/06/24 04:16:17;;;;;;;5.78;4.78;;;;;;;18.18;84.62;102354.72;6218291;28;20220;-71
2023/06/24 04:19:39;;;;;;;8.30;4.38;;;;;;;18.50;84.36;102363.41;6212116;28;20236;-71
2023/06/24 04:23:01;;;;;;;11.18;6.32;;;;;;;18.66;83.76;102360.00;6219169;28;20721;-73
2023/06/24 04:26:24;;;;;;;8.15;4.80;;;;;;;18.57;83.12;102356.31;6209561;28;20240;-71
2023/06/24 04:29:45;;;;;;;8.60;5.03;;;;;;;18.60;82.94;102355.16;6209552;28;20346;-71
2023/06/24 04:33:06;;;;;;;6.13;5.18;;;;;;;18.67;82.64;102348.06;6218781;28;20319;-71
2023/06/24 04:36:27;;;;;;;7.45;4.97;;;;;;;18.77;82.24;102354.34;6224606;28;20228;-71
2023/06/24 04:39:49;;;;;;;6.18;4.43;;;;;;;18.67;82.45;102348.06;6209995;28;20254;-71
2023/06/24 04:43:10;;;;;;;4.60;4.20;;;;;;;18.73;81.90;102359.22;6228863;28;20232;-70
2023/06/24 04:46:32;;;;;;;5.38;4.85;;;;;;;18.85;81.68;102359.91;6218114;28;21143;-70
2023/06/24 04:49:53;;;;;;;4.40;3.42;;;;;;;18.81;81.09;102356.63;6207980;28;20263;-72
2023/06/24 04:53:15;;;;;;;4.75;3.92;;;;;;;18.91;80.51;102362.00;6223385;28;20326;-71
2023/06/24 04:56:37;;;;;;;4.93;3.60;;;;;;;18.96;80.29;102363.25;6218802;28;20235;-71
2023/06/24 04:59:59;;;;;;;7.22;4.15;;;;;;;18.93;80.80;102366.31;6206230;28;20227;-71
2023/06/24 05:03:19;;;;;;;5.40;4.50;;;;;;;18.92;80.27;102363.75;6215198;28;20236;-72
2023/06/24 05:06:40;;;;;;;4.50;3.90;;;;;;;18.97;79.98;102366.84;6209406;28;20621;-71
2023/06/24 05:10:01;;;;;;;5.72;4.05;;;;;;;18.97;79.83;102365.00;6205194;28;20219;-70
2023/06/24 05:13:24;;;;;;;4.70;4.25;;;;;;;18.94;79.96;102370.75;6212653;28;20233;-71
2023/06/24 05:16:45;;;;;;;4.60;3.70;;;;;;;19.00;79.08;102372.88;6207989;28;20236;-72
2023/06/24 05:20:07;;;;;;;5.35;4.32;;;;;;;18.94;79.21;102367.19;6207841;28;20220;-71
2023/06/24 05:23:28;;;;;;;3.92;3.33;;;;;;;18.73;79.27;102364.69;6216834;28;20224;-71
2023/06/24 05:26:50;;;;;;;5.85;3.78;;;;;;;18.65;79.65;102371.97;6213114;28;20244;-70
2023/06/24 05:30:14;;;;;;;5.72;4.38;;;;;;;19.10;79.56;102362.75;6213553;28;20255;-72
2023/06/24 05:33:35;;;;;;;6.78;3.75;;;;;;;18.99;79.58;102353.88;6223938;28;20232;-71
2023/06/24 05:36:56;;;;;;;4.65;4.03;;;;;;;19.17;78.66;102349.28;6221776;28;20274;-72
2023/06/24 05:40:17;;;;;;;4.60;3.47;;;;;;;19.40;77.67;102356.03;6215728;28;20542;-71
2023/06/24 05:43:38;;;;;;;8.50;4.53;;;;;;;19.36;77.00;102348.34;6224756;28;20233;-72
2023/06/24 05:47:00;;;;;;;3.65;3.35;;;;;;;19.55;76.48;102345.41;6201463;28;20233;-72
2023/06/24 05:50:23;;;;;;;3.92;3.53;;;;;;;19.74;75.92;102346.06;6217878;28;20228;-71
2023/06/24 05:53:44;;;;;;;6.93;4.13;;;;;;;20.01;75.29;102347.78;6223987;28;20228;-72
2023/06/24 05:57:06;;;;;;;3.83;3.53;;;;;;;19.95;74.77;102356.66;6218969;28;20232;-71
2023/06/24 06:00:27;;;;;;;5.72;3.65;;;;;;;19.98;74.42;102352.75;6209746;28;20225;-72
2023/06/24 06:03:49;;;;;;;4.80;3.65;;;;;;;19.79;73.94;102371.09;6219922;28;20339;-72
2023/06/24 06:07:10;;;;;;;5.47;3.28;;;;;;;20.17;73.86;102369.78;6200943;28;20335;-70
2023/06/24 06:10:30;;;;;;;9.48;3.28;;;;;;;20.43;73.04;102378.03;6219152;28;20228;-70
2023/06/24 06:13:52;;;;;;;5.43;3.50;;;;;;;20.33;73.10;102386.38;6230100;28;20324;-70
2023/06/24 06:17:13;;;;;;;3.92;3.47;;;;;;;20.64;72.73;102387.56;6219217;28;20264;-71
2023/06/24 06:20:35;;;;;;;3.33;3.03;;;;;;;20.48;72.16;102383.88;6215650;28;20248;-72
2023/06/24 06:23:56;;;;;;;3.22;2.30;;;;;;;20.55;72.10;102396.75;6227660;28;20236;-72
2023/06/24 06:27:17;;;;;;;4.07;3.47;;;;;;;20.56;72.11;102393.00;6231946;28;20240;-71
2023/06/24 06:30:39;;;;;;;7.47;3.40;;;;;;;20.81;71.70;102398.59;6220011;28;20605;-72
2023/06/24 06:34:00;;;;;;;5.25;3.70;;;;;;;20.46;72.05;102389.50;6222790;28;20232;-71
2023/06/24 06:37:22;;;;;;;3.13;2.75;;;;;;;20.74;71.66;102392.91;6216443;28;20228;-72
2023/06/24 06:40:43;;;;;;;3.75;3.20;;;;;;;19.97;72.04;102394.81;6225695;28;20224;-72
2023/06/24 06:44:04;;;;;;;3.95;3.58;;;;;;;20.17;72.36;102399.09;6217613;28;20248;-70
2023/06/24 06:47:25;;;;;;;4.53;3.35;;;;;;;19.98;73.30;102402.91;6221476;28;20235;-70
2023/06/24 06:50:46;;;;;;;3.33;3.13;;;;;;;20.59;72.79;102395.41;6210826;28;20244;-69
2023/06/24 06:54:08;;;;;;;3.83;3.33;;;;;;;20.44;72.70;102391.56;6212296;28;20256;-64
2023/06/24 06:57:29;;;;;;;4.20;3.22;;;;;;;20.94;71.75;102393.50;6214836;28;20549;-64
2023/06/24 07:00:51;;;;;;;2.80;2.60;;;;;;;21.19;70.76;102387.09;6217373;28;20852;-64
2023/06/24 07:04:12;;;;;;;3.88;2.97;;;;;;;21.19;69.03;102389.81;6222703;28;20236;-64
2023/06/24 07:07:33;;;;;;;3.38;3.08;;;;;;;21.48;68.38;102387.47;6222700;28;20240;-66
2023/06/24 07:10:55;;;;;;;3.42;3.13;;;;;;;20.79;68.72;102379.56;6222510;28;20232;-65
2023/06/24 07:14:16;;;;;;;3.38;2.83;;;;;;;20.97;69.39;102382.19;6225214;28;20260;-64
2023/06/24 07:17:36;;;;;;;6.22;3.58;;;;;;;20.77;69.01;102391.72;6214305;28;20304;-65
2023/06/24 07:20:58;;;;;;;3.00;2.70;;;;;;;20.05;70.88;102393.00;6220968;28;20231;-66
2023/06/24 07:24:18;;;;;;;2.92;2.40;;;;;;;20.46;70.44;102394.16;6225353;28;20598;-65
2023/06/24 07:27:40;;;;;;;4.68;3.28;;;;;;;20.95;69.75;102393.31;6218651;28;20742;-67
2023/06/24 07:31:02;;;;;;;5.05;3.45;;;;;;;20.63;69.88;102398.69;6213243;28;20551;-65
2023/06/24 07:34:22;;;;;;;3.33;3.03;;;;;;;20.39;70.74;102396.69;6205842;28;20233;-65
2023/06/24 07:37:45;;;;;;;6.20;3.25;;;;;;;20.76;70.52;102401.81;6225548;28;21124;-66
2023/06/24 07:41:06;;;;;;;3.78;3.15;;;;;;;21.08;69.87;102401.09;6221665;28;20228;-71
2023/06/24 07:44:28;;;;;;;5.07;3.85;;;;;;;21.23;69.33;102397.56;6206029;28;20711;-69
2023/06/24 07:47:49;;;;;;;4.32;3.17;;;;;;;21.54;67.29;102402.38;6223514;28;20236;-70
2023/06/24 07:51:10;;;;;;;4.70;3.35;;;;;;;21.93;65.13;102406.19;6225720;28;20223;-70
2023/06/24 07:54:31;;;;;;;7.35;3.70;;;;;;;22.09;64.15;102406.19;6199838;28;20245;-70
2023/06/24 07:57:52;;;;;;;4.82;3.22;;;;;;;22.60;63.13;102405.75;6234928;28;20241;-70
2023/06/24 08:01:14;;;;;;;3.55;2.83;;;;;;;22.56;62.87;102400.75;6232519;28;20605;-70
2023/06/24 08:04:35;;;;;;;3.28;2.53;;;;;;;22.86;62.00;102397.22;6213524;28;20233;-70
2023/06/24 08:07:56;;;;;;;6.50;3.22;;;;;;;22.63;62.41;102399.91;6240045;28;20229;-70
2023/06/24 08:11:16;;;;;;;4.43;3.33;;;;;;;22.93;61.83;102400.97;6237808;28;20240;-71
2023/06/24 08:14:37;;;;;;;3.28;2.85;;;;;;;22.38;62.57;102397.38;6212711;28;20237;-70
2023/06/24 08:18:00;;;;;;;4.07;3.53;;;;;;;22.11;63.30;102401.38;6228104;28;20232;-70
2023/06/24 08:21:21;;;;;;;6.30;4.28;;;;;;;23.00;62.30;102393.72;6222930;28;20236;-71
2023/06/24 08:24:41;;;;;;;3.20;2.83;;;;;;;21.84;63.31;102391.59;6208706;28;20838;-70
2023/06/24 08:28:02;;;;;;;3.75;3.15;;;;;;;21.64;65.04;102392.97;6226792;28;20324;-72
2023/06/24 08:31:24;;;;;;;3.60;2.97;;;;;;;21.25;65.33;102397.38;6221577;28;20236;-71
2023/06/24 08:34:47;;;;;;;3.20;2.55;;;;;;;21.71;64.60;102398.63;6213189;28;20525;-70
2023/06/24 08:38:07;;;;;;;6.00;3.67;;;;;;;21.19;64.58;102398.06;6225245;28;20240;-71
2023/06/24 08:41:28;;;;;;;4.43;2.95;;;;;;;20.88;65.60;102403.22;6225982;28;20586;-70
2023/06/24 08:44:49;;;;;;;3.50;3.03;;;;;;;21.41;65.99;102389.16;6218943;28;20254;-70
2023/06/24 08:48:11;;;;;;;4.28;2.80;;;;;;;21.90;64.14;102385.44;6230706;28;20244;-70
2023/06/24 08:51:38;;;;;;;3.67;3.00;;;;;;;22.03;63.98;102388.50;6210190;28;20236;-70
2023/06/24 08:55:02;;;;;;;4.05;3.67;;;;;;;22.08;63.98;102379.75;6200072;28;20228;-71
2023/06/24 08:58:23;;;;;;;3.25;3.05;;;;;;;22.49;62.92;102388.75;6227008;28;20327;-72
2023/06/24 09:01:43;;;;;;;4.35;2.72;;;;;;;22.18;62.19;102392.25;6205871;28;20232;-70
2023/06/24 09:05:05;;;;;;;3.72;3.13;;;;;;;22.55;60.90;102394.38;6209222;28;20235;-71
2023/06/24 09:08:27;;;;;;;3.92;2.40;;;;;;;21.93;61.20;102400.69;6225635;28;20241;-71
2023/06/24 09:11:53;;;;;;;5.70;3.17;;;;;;;22.59;60.86;102394.94;6231231;28;20237;-71
2023/06/24 09:15:15;;;;;;;3.10;2.63;;;;;;;22.84;58.64;102393.81;6215213;28;20255;-71
2023/06/24 09:18:36;;;;;;;4.63;2.97;;;;;;;22.56;58.22;102398.84;6211330;28;20236;-72
2023/06/24 09:22:02;;;;;;;2.70;2.50;;;;;;;22.23;59.95;102395.34;6222932;28;20303;-71
2023/06/24 09:28:59;;;;;;;2.95;2.65;;;;;;;22.86;57.76;102392.56;6359735;22;20271;-71
2023/06/24 09:32:20;;;;;;;4.95;3.08;;;;;;;23.21;57.83;102396.69;6106658;28;20672;-71
2023/06/24 09:35:45;;;;;;;2.83;2.63;;;;;;;23.48;57.50;102390.69;6118991;28;20309;-71
2023/06/24 09:39:07;;;;;;;2.90;2.70;;;;;;;23.79;57.09;102387.84;6127207;28;20258;-71
2023/06/24 09:42:28;;;;;;;3.28;2.97;;;;;;;23.39;57.89;102391.78;6123156;28;20360;-70
2023/06/24 09:45:51;;;;;;;3.05;2.75;;;;;;;23.20;58.43;102381.19;6115599;28;20238;-70
2023/06/24 09:49:13;;;;;;;4.32;3.30;;;;;;;23.20;59.11;102380.38;6114219;28;20231;-71
2023/06/24 09:52:36;;;;;;;3.13;2.83;;;;;;;23.40;59.36;102371.47;6102585;28;20522;-69
2023/06/24 09:55:58;;;;;;;5.03;3.15;;;;;;;23.39;58.59;102364.25;6102949;28;20263;-70
2023/06/24 09:59:21;;;;;;;5.28;3.33;;;;;;;23.50;59.28;102368.47;6111655;28;20318;-71
2023/06/24 10:02:44;;;;;;;3.78;3.42;;;;;;;23.96;58.82;102372.00;6127656;28;20255;-71
2023/06/24 10:06:06;;;;;;;3.55;3.25;;;;;;;24.00;58.75;102365.94;6128848;28;20660;-70
2023/06/24 10:09:28;;;;;;;3.58;3.22;;;;;;;23.48;57.87;102359.53;6122311;28;20239;-70
2023/06/24 10:12:49;;;;;;;3.85;3.47;;;;;;;24.00;58.58;102354.06;6122424;28;20614;-71
2023/06/24 10:16:10;;;;;;;3.78;3.10;;;;;;;23.14;59.39;102346.16;6124980;28;20591;-71
2023/06/24 10:19:39;;;;;;;3.25;3.03;;;;;;;23.99;57.67;102346.84;6118958;28;20227;-71
2023/06/24 10:23:06;;;;;;;5.47;4.47;;;;;;;24.34;57.16;102351.66;6118173;28;20227;-70
2023/06/24 10:26:29;;;;;;;4.90;3.47;;;;;;;24.65;57.58;102348.69;6125507;28;20240;-71
2023/06/24 10:29:51;;;;;;;4.53;3.67;;;;;;;24.02;57.95;102347.31;6115104;28;20235;-70
2023/06/24 10:33:12;;;;;;;3.70;3.35;;;;;;;23.95;57.51;102340.84;6141330;28;20329;-71
2023/06/24 10:36:37;;;;;;;6.05;5.05;;;;;;;23.90;58.13;102334.19;6135609;28;20234;-70
2023/06/24 10:40:00;;;;;;;4.53;4.13;;;;;;;23.74;57.47;102329.69;6101285;28;22185;-71
2023/06/24 10:43:27;;;;;;;3.92;3.40;;;;;;;24.03;57.51;102337.16;6128495;28;20239;-71
2023/06/24 10:46:54;;;;;;;6.50;3.17;;;;;;;24.58;57.17;102343.06;6124297;28;20251;-67
2023/06/24 10:50:17;;;;;;;2.95;2.60;;;;;;;25.42;57.70;102328.63;6127951;28;20758;-66
2023/06/24 10:53:39;;;;;;;3.13;2.92;;;;;;;25.71;55.44;102330.34;6134539;28;20558;-66
2023/06/24 10:57:00;;;;;;;3.95;2.85;;;;;;;25.36;55.75;102321.09;6129701;28;20239;-66
2023/06/24 11:00:22;;;;;;;4.65;3.78;;;;;;;25.60;55.21;102328.13;6117381;28;20233;-65
2023/06/24 11:03:43;;;;;;;5.57;5.07;;;;;;;25.39;55.97;102313.25;6129529;28;20231;-65
2023/06/24 11:07:04;;;;;;;4.65;4.22;;;;;;;25.49;55.40;102303.81;6124186;28;20326;-66
2023/06/24 11:10:26;;;;;;;3.63;3.33;;;;;;;26.04;55.16;102298.28;6119464;28;20238;-65
2023/06/24 11:13:49;;;;;;;2.90;2.70;;;;;;;26.23;54.66;102299.50;6129599;28;20318;-65
2023/06/24 11:17:10;;;;;;;3.67;3.10;;;;;;;26.55;54.89;102290.50;6117854;28;20251;-66
2023/06/24 11:20:30;;;;;;;3.05;2.75;;;;;;;25.55;54.97;102301.13;6110885;28;20827;-65
2023/06/24 11:23:51;;;;;;;3.53;2.47;;;;;;;25.52;54.79;102301.50;6137530;28;20556;-64
2023/06/24 11:27:14;;;;;;;3.33;2.88;;;;;;;26.00;55.39;102303.38;6121185;28;20732;-65
2023/06/24 11:30:35;;;;;;;2.78;2.53;;;;;;;26.21;53.52;102299.69;6107488;28;20527;-65
2023/06/24 11:33:56;;;;;;;2.92;2.65;;;;;;;26.48;54.21;102300.69;6122263;28;20556;-66
2023/06/24 11:37:19;;;;;;;3.15;2.85;;;;;;;26.71;53.82;102293.75;6128767;28;20232;-65
2023/06/24 11:40:39;;;;;;;3.60;3.20;;;;;;;26.95;53.86;102302.59;6131880;28;20234;-64
2023/06/24 11:44:02;;;;;;;2.22;2.03;;;;;;;26.86;52.04;102305.56;6129914;28;20639;-65
2023/06/24 11:47:24;;;;;;;3.90;2.65;;;;;;;26.11;53.16;102297.31;6115735;28;20267;-64
2023/06/24 11:50:45;;;;;;;3.60;3.30;;;;;;;27.34;53.06;102297.13;6118397;28;20235;-66
2023/06/24 11:54:06;;;;;;;3.75;3.25;;;;;;;26.98;52.44;102280.88;6125709;28;20262;-65
2023/06/24 11:57:52;;;;;;;2.83;2.20;;;;;;;26.71;52.05;102277.16;6113451;28;20826;-69
2023/06/24 12:01:14;;;;;;;2.50;2.28;;;;;;;26.97;51.77;102273.66;6109293;28;20243;-70
2023/06/24 12:04:36;;;;;;;4.72;3.30;;;;;;;27.03;52.42;102275.59;6077120;28;20370;-70
2023/06/24 12:07:59;;;;;;;3.10;2.80;;;;;;;27.45;51.37;102277.16;6113886;28;20310;-69
2023/06/24 12:11:20;;;;;;;2.70;2.50;;;;;;;27.29;51.49;102260.88;6100127;28;20227;-69
2023/06/24 12:14:41;;;;;;;3.15;2.95;;;;;;;27.48;51.74;102272.03;6106333;28;20240;-70
2023/06/24 12:18:05;;;;;;;4.40;4.00;;;;;;;27.46;51.12;102276.94;6136454;28;22456;-70
2023/06/24 12:21:26;;;;;;;2.80;2.60;;;;;;;26.88;51.73;102273.00;6133914;28;20274;-70
2023/06/24 12:24:47;;;;;;;3.95;3.15;;;;;;;26.17;53.36;102264.34;6112978;28;20247;-69
2023/06/24 12:28:08;;;;;;;4.40;2.83;;;;;;;27.47;51.67;102262.00;6137210;28;20230;-69
2023/06/24 12:31:28;;;;;;;3.75;2.70;;;;;;;27.77;50.13;102261.53;6137569;28;20223;-69
2023/06/24 12:34:50;;;;;;;2.63;2.42;;;;;;;26.80;52.68;102267.66;6110872;28;20260;-70
2023/06/24 12:38:11;;;;;;;2.78;2.47;;;;;;;27.08;51.59;102263.88;6130810;28;20231;-70
2023/06/24 12:41:33;;;;;;;2.90;2.58;;;;;;;27.59;51.47;102265.84;6117834;28;20706;-69
2023/06/24 12:44:54;;;;;;;5.00;2.70;;;;;;;28.26;50.28;102265.53;6109925;28;20240;-70
2023/06/24 12:48:15;;;;;;;3.40;3.15;;;;;;;27.67;50.51;102251.75;6116100;28;20223;-69
2023/06/24 12:51:37;;;;;;;4.07;3.63;;;;;;;28.59;48.82;102256.22;6106510;28;20230;-67
2023/06/24 12:54:58;;;;;;;17.73;3.67;;;;;;;28.23;49.59;102271.50;6093649;28;20882;-69
2023/06/24 12:58:23;;;;;;;4.18;3.33;;;;;;;28.02;50.27;102245.94;6117634;28;20259;-68
2023/06/24 13:01:44;;;;;;;3.83;3.42;;;;;;;27.31;50.84;102254.06;6105394;28;20243;-68
2023/06/24 13:05:06;;;;;;;6.15;2.90;;;;;;;28.63;49.78;102246.38;6087645;28;20242;-68
2023/06/24 13:08:28;;;;;;;3.33;2.88;;;;;;;28.20;50.04;102246.13;6122863;28;20235;-69
2023/06/24 13:11:49;;;;;;;3.95;3.55;;;;;;;27.82;50.89;102237.66;6121163;28;20235;-68
2023/06/24 13:15:11;;;;;;;2.80;2.60;;;;;;;27.26;51.68;102247.47;6104256;28;20238;-68
2023/06/24 13:18:31;;;;;;;6.65;3.67;;;;;;;26.67;51.96;102239.91;6088644;28;20756;-68
2023/06/24 13:21:52;;;;;;;3.88;3.15;;;;;;;27.94;51.83;102244.25;6114448;28;20318;-69
2023/06/24 13:25:14;;;;;;;5.55;3.42;;;;;;;28.94;49.98;102244.50;6086566;28;20232;-68
2023/06/24 13:28:35;;;;;;;2.80;2.60;;;;;;;28.82;49.31;102239.88;6105409;28;20608;-69
2023/06/24 13:31:56;;;;;;;3.63;3.33;;;;;;;30.19;47.75;102237.81;6084804;28;20862;-68
2023/06/24 13:35:17;;;;;;;3.45;3.03;;;;;;;30.10;45.66;102239.22;6096004;28;20321;-67
2023/06/24 13:38:38;;;;;;;3.17;2.95;;;;;;;28.35;47.86;102243.94;6103355;28;20239;-68
2023/06/24 13:42:00;;;;;;;2.85;2.40;;;;;;;27.25;50.27;102240.22;6088635;28;20308;-68
2023/06/24 13:45:21;;;;;;;3.45;3.13;;;;;;;27.15;52.01;102235.13;6119130;28;20256;-66
2023/06/24 13:48:43;;;;;;;4.65;3.05;;;;;;;27.19;52.20;102232.75;6108511;28;20473;-68
2023/06/24 13:52:04;;;;;;;2.58;2.38;;;;;;;27.20;52.09;102226.19;6106233;28;20256;-68
2023/06/24 13:55:25;;;;;;;4.30;2.45;;;;;;;26.82;52.93;102231.44;6111653;28;20468;-67
2023/06/24 13:58:49;;;;;;;2.38;2.28;;;;;;;26.77;52.79;102231.22;6130372;28;20519;-69
2023/06/24 14:02:11;;;;;;;2.55;2.35;;;;;;;26.87;52.03;102229.75;6128341;28;20573;-68
2023/06/24 14:05:32;;;;;;;4.40;2.75;;;;;;;26.51;52.70;102225.59;6121111;28;20234;-68
2023/06/24 14:08:53;;;;;;;3.38;2.92;;;;;;;26.68;52.53;102211.13;6123784;28;20243;-68
2023/06/24 14:12:13;;;;;;;2.72;2.53;;;;;;;27.33;51.21;102210.38;6132970;28;20259;-69
2023/06/24 14:15:35;;;;;;;2.97;2.70;;;;;;;27.71;51.36;102210.59;6120030;28;20616;-68
2023/06/24 14:18:56;;;;;;;2.53;2.33;;;;;;;27.71;51.40;102207.81;6132879;28;20239;-67
2023/06/24 14:22:17;;;;;;;2.92;2.72;;;;;;;28.18;50.66;102209.44;6132298;28;20636;-68
2023/06/24 14:25:38;;;;;;;2.20;2.00;;;;;;;28.89;49.61;102205.41;6118408;28;20586;-68
2023/06/24 14:29:01;;;;;;;4.55;2.63;;;;;;;28.36;48.94;102202.09;6125368;28;20259;-67
2023/06/24 14:32:23;;;;;;;3.50;2.90;;;;;;;29.02;48.39;102193.34;6114557;28;20236;-68
2023/06/24 14:35:44;;;;;;;3.30;2.90;;;;;;;29.31;48.28;102195.50;6114093;28;20804;-67
2023/06/24 14:39:05;;;;;;;3.95;3.55;;;;;;;29.39;48.90;102198.00;6112475;28;21212;-68
2023/06/24 14:42:26;;;;;;;8.38;7.65;;;;;;;28.74;49.49;102204.03;6121855;28;20251;-68
2023/06/24 14:45:47;;;;;;;3.75;3.38;;;;;;;27.89;50.29;102199.66;6125460;28;20314;-69
2023/06/24 14:49:09;;;;;;;5.82;5.22;;;;;;;27.81;51.21;102197.13;6126670;28;20259;-69
2023/06/24 14:52:30;;;;;;;6.75;5.93;;;;;;;27.98;51.30;102201.16;6129878;28;20228;-69
2023/06/24 14:55:51;;;;;;;9.85;8.07;;;;;;;27.79;50.51;102202.03;6117017;28;20692;-69
2023/06/24 14:59:12;;;;;;;8.18;6.75;;;;;;;28.07;51.20;102193.47;6125880;28;21073;-69
2023/06/24 15:02:33;;;;;;;5.85;5.32;;;;;;;28.96;49.21;102185.94;6124810;28;20243;-68
2023/06/24 15:05:55;;;;;;;4.75;3.63;;;;;;;29.25;47.73;102178.91;6122054;28;20255;-69
2023/06/24 15:09:16;;;;;;;3.05;2.65;;;;;;;29.05;47.43;102181.81;6117550;28;20259;-71
2023/06/24 15:12:38;;;;;;;5.80;3.40;;;;;;;28.56;47.87;102185.34;6108838;28;20228;-69
2023/06/24 15:15:59;;;;;;;3.03;2.83;;;;;;;28.89;47.23;102183.19;6125112;28;20578;-69
2023/06/24 15:19:20;;;;;;;4.20;3.80;;;;;;;28.53;48.52;102171.91;6102144;28;20608;-69
2023/06/24 15:22:42;;;;;;;12.48;11.07;;;;;;;29.03;48.95;102170.94;6132240;28;20620;-69
2023/06/24 15:26:03;;;;;;;3.30;3.00;;;;;;;29.23;47.34;102172.72;6126475;28;20234;-70
2023/06/24 15:29:24;;;;;;;3.72;3.42;;;;;;;28.28;48.88;102168.19;6116399;28;21322;-70
2023/06/24 15:32:46;;;;;;;4.18;3.80;;;;;;;28.07;49.90;102174.91;6135563;28;20255;-69
2023/06/24 15:36:07;;;;;;;9.65;8.63;;;;;;;27.76;50.34;102173.91;6129605;28;20214;-69
2023/06/24 15:39:29;;;;;;;17.17;15.45;;;;;;;27.68;51.19;102166.69;6121454;28;20314;-69
2023/06/24 15:42:50;;;;;;;4.53;3.65;;;;;;;27.15;51.46;102176.09;6138735;28;20526;-69